createdAt,value
2023-02-01T00:04:39.654Z,6.80
2023-02-01T00:14:43.673Z,6.72
2023-02-01T00:24:46.337Z,6.78
2023-02-01T00:34:50.309Z,6.87
2023-02-01T00:44:52.945Z,6.87
2023-02-01T00:54:56.896Z,6.89
2023-02-01T01:04:59.513Z,6.89
2023-02-01T01:15:03.812Z,6.97
2023-02-01T01:25:07.382Z,7.17
2023-02-01T01:35:11.948Z,7.05
2023-02-01T01:45:24.436Z,7.17
2023-02-01T01:55:30.974Z,7.04
2023-02-01T02:05:33.590Z,6.73
2023-02-01T02:15:43.764Z,6.75
2023-02-01T02:26:31.717Z,6.57
2023-02-01T02:36:45.548Z,6.35
2023-02-01T02:47:08.775Z,6.07
2023-02-01T02:57:32.754Z,5.79
2023-02-01T03:08:06.734Z,5.78
2023-02-01T03:18:17.684Z,5.68
2023-02-01T03:28:23.549Z,5.81
2023-02-01T03:38:33.054Z,5.98
2023-02-01T03:48:37.221Z,6.06
2023-02-01T03:58:41.244Z,6.16
2023-02-01T04:08:44.011Z,6.27
2023-02-01T04:18:47.997Z,6.25
2023-02-01T04:28:51.701Z,6.04
2023-02-01T04:38:55.751Z,5.67
2023-02-01T04:48:58.422Z,5.60
2023-02-01T04:59:03.268Z,5.75
2023-02-01T05:09:05.935Z,5.95
2023-02-01T05:19:09.905Z,6.15
2023-02-01T05:29:12.555Z,6.44
2023-02-01T05:39:16.516Z,6.36
2023-02-01T05:49:19.129Z,6.64
2023-02-01T05:59:23.079Z,6.61
2023-02-01T06:09:25.677Z,6.72
2023-02-01T06:19:29.650Z,6.86
2023-02-01T06:29:32.279Z,6.59
2023-02-01T06:39:36.672Z,6.72
2023-02-01T06:49:39.336Z,6.49
2023-02-01T06:59:43.351Z,6.50
2023-02-01T07:09:45.941Z,6.88
2023-02-01T07:19:49.933Z,6.84
2023-02-01T07:29:52.731Z,6.69
2023-02-01T07:39:56.682Z,6.72
2023-02-01T07:49:59.318Z,6.72
2023-02-01T08:00:21.464Z,6.88
2023-02-01T08:10:24.539Z,7.19
2023-02-01T08:20:28.749Z,7.17
2023-02-01T08:30:31.348Z,7.26
2023-02-01T08:40:35.384Z,7.35
2023-02-01T08:50:38.001Z,7.23
2023-02-01T09:00:42.219Z,7.42
2023-02-01T09:10:44.892Z,7.30
2023-02-01T09:20:48.939Z,7.38
2023-02-01T09:30:51.665Z,7.37
2023-02-01T09:40:56.559Z,7.45
2023-02-01T09:51:00.961Z,7.05
2023-02-01T10:01:07.171Z,6.87
2023-02-01T10:11:24.593Z,6.88
2023-02-01T10:21:42.496Z,6.60
2023-02-01T10:31:45.457Z,6.37
2023-02-01T10:41:49.613Z,6.13
2023-02-01T10:51:56.457Z,5.87
2023-02-01T11:02:15.142Z,5.82
2023-02-01T11:12:30.731Z,5.89
2023-02-01T11:22:34.785Z,6.25
2023-02-01T11:32:37.441Z,5.98
2023-02-01T11:42:56.310Z,3.86
2023-02-01T11:53:11.701Z,3.09
2023-02-01T12:03:39.008Z,2.89
2023-02-01T12:13:52.409Z,2.89
2023-02-01T12:24:15.566Z,3.41
2023-02-01T12:34:37.085Z,3.94
2023-02-01T12:44:47.970Z,4.41
2023-02-01T12:54:57.042Z,4.34
2023-02-01T13:05:06.020Z,4.72
2023-02-01T13:15:15.146Z,5.80
2023-02-01T13:25:28.469Z,10.25
2023-02-01T13:35:57.256Z,8.17
2023-02-01T13:46:09.756Z,9.14
2023-02-01T13:56:16.325Z,7.94
2023-02-01T14:06:40.921Z,7.81
2023-02-01T14:16:43.773Z,8.18
2023-02-01T14:26:49.654Z,8.24
2023-02-01T14:36:59.716Z,8.57
2023-02-01T14:47:30.037Z,8.23
2023-02-01T14:57:33.786Z,7.98
2023-02-01T15:07:37.785Z,8.34
2023-02-01T15:17:40.559Z,7.97
2023-02-01T15:27:44.533Z,8.16
2023-02-01T15:37:47.180Z,7.58
2023-02-01T15:47:53.107Z,7.72
2023-02-01T15:57:55.797Z,7.62
2023-02-01T16:08:05.246Z,7.56
2023-02-01T16:18:09.067Z,7.65
2023-02-01T16:28:13.031Z,7.78
2023-02-01T16:38:19.405Z,7.78
2023-02-01T16:48:26.669Z,7.32
2023-02-01T16:58:29.339Z,7.22
2023-02-01T17:08:35.572Z,7.55
2023-02-01T17:18:38.523Z,7.44
2023-02-01T17:28:42.489Z,7.42
2023-02-01T17:38:51.026Z,7.65
2023-02-01T17:48:57.519Z,7.23
2023-02-01T17:59:00.102Z,7.37
2023-02-01T18:09:04.147Z,6.98
2023-02-01T18:19:06.880Z,7.07
2023-02-01T18:29:11.009Z,7.09
2023-02-01T18:39:14.036Z,7.16
2023-02-01T18:49:19.684Z,7.02
2023-02-01T18:59:22.317Z,6.98
2023-02-01T19:09:26.328Z,6.88
2023-02-01T19:19:29.337Z,6.93
2023-02-01T19:29:33.350Z,6.99
2023-02-01T19:39:37.638Z,6.78
2023-02-01T19:49:41.701Z,6.81
2023-02-01T19:59:44.349Z,6.96
2023-02-01T20:09:47.499Z,6.83
2023-02-01T20:19:51.300Z,6.96
2023-02-01T20:29:56.852Z,6.89
2023-02-01T20:40:00.997Z,6.85
2023-02-01T20:50:06.678Z,7.25
2023-02-01T21:00:10.977Z,7.16
2023-02-01T21:10:14.949Z,6.80
2023-02-01T21:20:19.305Z,7.14
2023-02-01T21:30:23.414Z,6.96
2023-02-01T21:40:26.132Z,6.85
2023-02-01T21:50:30.219Z,7.23
2023-02-01T22:00:32.866Z,7.10
2023-02-01T22:10:39.035Z,7.25
2023-02-01T22:20:41.680Z,7.24
2023-02-01T22:30:45.781Z,6.86
2023-02-01T22:40:55.378Z,6.93
2023-02-01T22:51:00.145Z,6.83
2023-02-01T23:01:10.130Z,7.09
2023-02-01T23:11:14.176Z,7.18
2023-02-01T23:21:20.027Z,7.01
2023-02-01T23:31:25.964Z,7.11
2023-02-01T23:41:29.971Z,7.04
2023-02-01T23:51:34.178Z,6.69
